Queen Of Nanaimo — VCNX — position and weather

sailwx.info

Track history (hours):
 
Tides and Currents Weather Stations Pressure Air Temp Water Temp Dewpoint Dewpoint Depression Visibility Wind Speed Wind Dir Waves Ship Positions

Queen Of Nanaimo

Last reported at 2017-Mar-29 04:32 UTC. Time now 2017-Mar-29 05:29 UTC.
Position N 48°48' W 123°19'.

Length 130 m; draft 4 m.

Type: Passenger vessel. MMSI: 316001254.

Date/timePositionNaut miles runAvg speedWind from/ knotsBaromVisibWave heightAir tempDewpointWater temp
2017-Mar-29 04:32N 48°48' W 123°19'5 4.7
2017-Mar-29 03:33N 48°53' W 123°19'9 8.8
2017-Mar-29 02:33N 48°59' W 123°10'2 1.7
2017-Mar-29 01:33N 49°00' W 123°08'1110.6
2017-Mar-29 00:34N 48°53' W 123°19'2 1.9
2017-Mar-28 23:31N 48°51' W 123°20'3 3.6
2017-Mar-28 22:33N 48°49' W 123°24'2 1.0
2017-Mar-28 20:11N 48°51' W 123°27'6 9.7
2017-Mar-28 19:34N 48°48' W 123°19'4 3.7
2017-Mar-28 18:33N 48°52' W 123°20'9 8.8
2017-Mar-28 17:33N 48°58' W 123°11'3 2.9
2017-Mar-28 16:32N 49°00' W 123°08'10 9.8
2017-Mar-28 15:34N 48°53' W 123°18'3 2.6
2017-Mar-28 14:29N 48°51' W 123°20'3 3.6
2017-Mar-28 13:33N 48°50' W 123°25'2 2.1
2017-Mar-28 12:33N 48°51' W 123°27'0 0.0
2017-Mar-28 11:12N 48°51' W 123°27'0 0.0
2017-Mar-28 10:06N 48°51' W 123°27'1 0.1
2017-Mar-28 05:09N 48°51' W 123°26'5 8.4
2017-Mar-28 04:31N 48°48' W 123°19'4 4.7
2017-Mar-28 03:33N 48°53' W 123°19'8 7.7
2017-Mar-28 02:33N 48°58' W 123°11'3 2.7
2017-Mar-28 01:33N 49°00' W 123°08'1110.6
2017-Mar-28 00:33N 48°53' W 123°19'2 1.9
2017-Mar-27 23:33N 48°51' W 123°20'3 3.2
2017-Mar-27 22:33N 48°49' W 123°24'3 1.0
2017-Mar-27 19:33N 48°48' W 123°19'3 3.3
2017-Mar-27 18:33N 48°51' W 123°21'8 7.9
2017-Mar-27 17:33N 48°57' W 123°14'5 4.8
2017-Mar-27 16:33N 49°00' W 123°08'10 9.8
2017-Mar-27 15:33N 48°53' W 123°18'3 2.5
2017-Mar-27 14:30N 48°51' W 123°20'3 3.7
2017-Mar-27 13:33N 48°50' W 123°25'2 0.3
2017-Mar-27 06:32N 48°51' W 123°27'1010.4
2017-Mar-27 05:33N 48°56' W 123°13'4 4.3
2017-Mar-27 04:34N 48°59' W 123°08'1111.0
2017-Mar-27 03:33N 48°51' W 123°20'5 5.3
2017-Mar-27 02:33N 48°55' W 123°16'7 7.1
2017-Mar-27 01:33N 49°00' W 123°08'6 6.4
2017-Mar-27 00:33N 48°55' W 123°14'6 6.2
2017-Mar-26 23:33N 48°51' W 123°21'4 3.9
2017-Mar-26 22:32N 48°51' W 123°27'0 0.1
2017-Mar-26 21:06N 48°51' W 123°27'611.0
2017-Mar-26 20:33N 48°48' W 123°19'4 3.8
2017-Mar-26 19:33N 48°52' W 123°21'8 8.0
2017-Mar-26 18:33N 48°58' W 123°13'4 4.2
2017-Mar-26 17:33N 49°00' W 123°08'10 9.6
2017-Mar-26 16:33N 48°53' W 123°17'3 2.8
2017-Mar-26 15:33N 48°51' W 123°20'3 3.3
2017-Mar-26 14:33N 48°49' W 123°24'3 0.3
2017-Mar-26 05:33N 48°51' W 123°21'3 3.0
2017-Mar-26 04:34N 48°53' W 123°18'10 9.6
2017-Mar-26 03:33N 49°00' W 123°08'0 0.0
2017-Mar-26 02:33N 49°00' W 123°08'0 0.0
2017-Mar-26 01:33N 49°00' W 123°08'1110.5
2017-Mar-26 00:33N 48°53' W 123°19'4 4.0
2017-Mar-25 23:33N 48°49' W 123°20'5 5.0
2017-Mar-25 22:33N 48°51' W 123°27'1 0.7
2017-Mar-25 20:33N 48°50' W 123°25'1312.9
2017-Mar-25 19:33N 48°59' W 123°10'0 0.4
2017-Mar-25 18:33N 48°59' W 123°10'10 7.5
2017-Mar-25 17:12N 48°51' W 123°20'2 2.9
2017-Mar-25 16:32N 48°53' W 123°19'1110.9
2017-Mar-25 15:34N 49°00' W 123°08'5 4.5
2017-Mar-25 14:33N 48°57' W 123°12'1111.1
2017-Mar-25 13:33N 48°51' W 123°27'0 0.0
2017-Mar-25 05:27N 48°51' W 123°27'6 6.7
2017-Mar-25 04:34N 48°48' W 123°20'5 4.7
2017-Mar-25 03:31N 48°53' W 123°19'1111.1
2017-Mar-25 02:33N 49°00' W 123°08'0 0.0
2017-Mar-25 01:32N 49°00' W 123°08'1110.8
2017-Mar-25 00:33N 48°53' W 123°19'2 1.9
2017-Mar-24 23:32N 48°51' W 123°20'3 3.4
2017-Mar-24 22:33N 48°49' W 123°24'3 1.3
2017-Mar-24 20:14N 48°51' W 123°27'6 8.9
2017-Mar-24 19:33N 48°48' W 123°19'4 3.6
2017-Mar-24 18:34N 48°52' W 123°19'9 8.6
2017-Mar-24 17:33N 48°59' W 123°11'3 2.7
2017-Mar-24 16:33N 49°00' W 123°08'10 9.5
2017-Mar-24 15:33N 48°53' W 123°17'3 2.8
2017-Mar-24 14:31N 48°51' W 123°20'3 3.5
2017-Mar-24 13:32N 48°49' W 123°24'2 0.8
2017-Mar-24 10:32N 48°51' W 123°27'0 0.0
2017-Mar-24 05:32N 48°51' W 123°27'6 6.2
2017-Mar-24 04:33N 48°48' W 123°19'5 4.6
2017-Mar-24 03:34N 48°53' W 123°18'9 8.7
2017-Mar-24 02:33N 48°59' W 123°10'2 1.8
2017-Mar-24 01:33N 49°00' W 123°08'1110.7
2017-Mar-24 00:33N 48°53' W 123°19'2 2.0
2017-Mar-23 23:33N 48°51' W 123°20'4 3.8
2017-Mar-23 22:29N 48°51' W 123°26'1 0.3
2017-Mar-23 20:22N 48°51' W 123°27'6 7.4
2017-Mar-23 19:33N 48°48' W 123°19'4 4.4
2017-Mar-23 18:34N 48°52' W 123°18'8 8.2
2017-Mar-23 17:33N 48°59' W 123°11'2 2.5
2017-Mar-23 16:33N 49°00' W 123°08'1010.0
2017-Mar-23 15:33N 48°53' W 123°18'2 2.4
2017-Mar-23 14:31N 48°51' W 123°20'3 3.5
2017-Mar-23 13:34N 48°49' W 123°24'1 0.1
2017-Mar-23 05:33N 48°49' W 123°24'3 3.1
2017-Mar-23 04:28N 48°51' W 123°20'5 5.8
2017-Mar-23 03:33N 48°55' W 123°16'7 7.3
2017-Mar-23 02:33N 49°00' W 123°08'0 0.0
2017-Mar-23 01:33N 49°00' W 123°08'1110.7
2017-Mar-23 00:33N 48°53' W 123°19'2 1.7
2017-Mar-22 23:27N 48°51' W 123°20'3 3.8
2017-Mar-22 22:33N 48°49' W 123°24'3 1.2
2017-Mar-22 20:27N 48°51' W 123°27'6 6.6
2017-Mar-22 19:34N 48°48' W 123°19'3 3.0
2017-Mar-22 18:33N 48°51' W 123°20'8 7.7
2017-Mar-22 17:33N 48°57' W 123°13'5 5.0
2017-Mar-22 16:33N 49°00' W 123°08'9 9.3
2017-Mar-22 15:33N 48°53' W 123°17'3 3.1
2017-Mar-22 14:31N 48°51' W 123°20'3 3.4
2017-Mar-22 13:33N 48°49' W 123°24'2 0.3
2017-Mar-22 05:20N 48°51' W 123°27'6 7.8
2017-Mar-22 04:33N 48°48' W 123°19'5 4.6
2017-Mar-22 03:33N 48°53' W 123°18'8 8.3
2017-Mar-22 02:33N 48°59' W 123°10'2 2.2
2017-Mar-22 01:33N 49°00' W 123°08'1110.7
2017-Mar-22 00:33N 48°53' W 123°19'4 3.6
2017-Mar-21 23:33N 48°49' W 123°20'5 3.3
2017-Mar-21 22:09N 48°51' W 123°27'0 0.0
2017-Mar-21 21:26N 48°51' W 123°27'0 0.0
2017-Mar-21 20:12N 48°51' W 123°27'6 9.4
2017-Mar-21 19:34N 48°48' W 123°19'4 3.8
2017-Mar-21 18:33N 48°52' W 123°20'9 8.8
2017-Mar-21 17:34N 48°58' W 123°11'3 3.1
2017-Mar-21 16:33N 49°00' W 123°08'10 9.9
2017-Mar-21 15:33N 48°53' W 123°18'3 2.6
2017-Mar-21 14:29N 48°51' W 123°20'3 3.6
2017-Mar-21 13:33N 48°49' W 123°24'2 1.0
2017-Mar-21 11:15N 48°51' W 123°27'0 0.0
2017-Mar-21 07:30N 48°51' W 123°27'0 0.0
2017-Mar-21 05:19N 48°51' W 123°27'6 8.0
2017-Mar-21 04:33N 48°48' W 123°19'4 4.3
2017-Mar-21 03:33N 48°52' W 123°18'9 8.5
2017-Mar-21 02:33N 48°59' W 123°10'2 2.1
2017-Mar-21 01:33N 49°00' W 123°08'1110.6
2017-Mar-21 00:33N 48°53' W 123°19'2 2.0
2017-Mar-20 23:33N 48°51' W 123°20'3 3.5
2017-Mar-20 22:33N 48°49' W 123°24'2 2.4
2017-Mar-20 21:33N 48°51' W 123°27'0 0.0
2017-Mar-20 20:32N 48°51' W 123°27'6 6.0
2017-Mar-20 19:33N 48°48' W 123°19'3 3.0
2017-Mar-20 18:33N 48°51' W 123°20'8 8.0
2017-Mar-20 17:33N 48°57' W 123°13'5 4.2
2017-Mar-20 16:27N 49°00' W 123°08'1010.8
2017-Mar-20 15:34N 48°53' W 123°17'3 2.9
2017-Mar-20 14:33N 48°51' W 123°20'3 3.3
2017-Mar-20 13:33N 48°49' W 123°24'3 3.1
2017-Mar-20 12:33N 48°51' W 123°27'0 0.0
2017-Mar-20 08:28N 48°51' W 123°27'0 0.0
2017-Mar-20 07:25N 48°51' W 123°27'0 0.0
2017-Mar-20 06:07N 48°51' W 123°27'5 9.0
2017-Mar-20 05:33N 48°52' W 123°19'1211.5
2017-Mar-20 04:33N 49°00' W 123°08'1111.1
2017-Mar-20 03:34N 48°52' W 123°18'0 0.2
2017-Mar-20 02:34N 48°52' W 123°18'1110.6
2017-Mar-20 01:32N 49°00' W 123°08'8 8.0
2017-Mar-20 00:34N 48°54' W 123°15'5 4.9
2017-Mar-19 23:33N 48°51' W 123°21'4 1.9
2017-Mar-19 21:33N 48°51' W 123°27'6 6.1
2017-Mar-19 20:34N 48°48' W 123°19'4 3.6
2017-Mar-19 19:33N 48°51' W 123°21'8 8.2
2017-Mar-19 18:33N 48°57' W 123°13'4 4.3
2017-Mar-19 17:33N 49°00' W 123°08'10 9.8
2017-Mar-19 16:33N 48°53' W 123°18'3 2.7
2017-Mar-19 15:33N 48°51' W 123°20'3 3.4
2017-Mar-19 14:33N 48°49' W 123°24'3 2.7
2017-Mar-19 13:32N 48°51' W 123°27'0 0.0
2017-Mar-19 12:10N 48°51' W 123°27'0 0.0
2017-Mar-19 10:31N 48°51' W 123°27'0 0.0
2017-Mar-19 07:07N 48°51' W 123°27'4 2.7
2017-Mar-19 05:33N 48°51' W 123°20'4 4.4
2017-Mar-19 04:33N 48°55' W 123°17'  
Track history (hours):
 
Tides and Currents Weather Stations Pressure Air Temp Water Temp Dewpoint Dewpoint Depression Visibility Wind Speed Wind Dir Waves Ship Positions

Queen Of Nanaimo

Last reported at 2017-Mar-29 04:32 UTC. Time now 2017-Mar-29 05:29 UTC.
Position N 48°48' W 123°19'.

Length 130 m; draft 4 m.

Type: Passenger vessel. MMSI: 316001254.

Date/timePositionNaut miles runAvg speedWind from/ knotsBaromVisibWave heightAir tempDewpointWater temp
2017-Mar-29 04:32N 48°48' W 123°19'5 4.7
2017-Mar-29 03:33N 48°53' W 123°19'9 8.8
2017-Mar-29 02:33N 48°59' W 123°10'2 1.7
2017-Mar-29 01:33N 49°00' W 123°08'1110.6
2017-Mar-29 00:34N 48°53' W 123°19'2 1.9
2017-Mar-28 23:31N 48°51' W 123°20'3 3.6
2017-Mar-28 22:33N 48°49' W 123°24'2 1.0
2017-Mar-28 20:11N 48°51' W 123°27'6 9.7
2017-Mar-28 19:34N 48°48' W 123°19'4 3.7
2017-Mar-28 18:33N 48°52' W 123°20'9 8.8
2017-Mar-28 17:33N 48°58' W 123°11'3 2.9
2017-Mar-28 16:32N 49°00' W 123°08'10 9.8
2017-Mar-28 15:34N 48°53' W 123°18'3 2.6
2017-Mar-28 14:29N 48°51' W 123°20'3 3.6
2017-Mar-28 13:33N 48°50' W 123°25'2 2.1
2017-Mar-28 12:33N 48°51' W 123°27'0 0.0
2017-Mar-28 11:12N 48°51' W 123°27'0 0.0
2017-Mar-28 10:06N 48°51' W 123°27'1 0.1
2017-Mar-28 05:09N 48°51' W 123°26'5 8.4
2017-Mar-28 04:31N 48°48' W 123°19'4 4.7
2017-Mar-28 03:33N 48°53' W 123°19'8 7.7
2017-Mar-28 02:33N 48°58' W 123°11'3 2.7
2017-Mar-28 01:33N 49°00' W 123°08'1110.6
2017-Mar-28 00:33N 48°53' W 123°19'2 1.9
2017-Mar-27 23:33N 48°51' W 123°20'3 3.2
2017-Mar-27 22:33N 48°49' W 123°24'3 1.0
2017-Mar-27 19:33N 48°48' W 123°19'3 3.3
2017-Mar-27 18:33N 48°51' W 123°21'8 7.9
2017-Mar-27 17:33N 48°57' W 123°14'5 4.8
2017-Mar-27 16:33N 49°00' W 123°08'10 9.8
2017-Mar-27 15:33N 48°53' W 123°18'3 2.5
2017-Mar-27 14:30N 48°51' W 123°20'3 3.7
2017-Mar-27 13:33N 48°50' W 123°25'2 0.3
2017-Mar-27 06:32N 48°51' W 123°27'1010.4
2017-Mar-27 05:33N 48°56' W 123°13'4 4.3
2017-Mar-27 04:34N 48°59' W 123°08'1111.0
2017-Mar-27 03:33N 48°51' W 123°20'5 5.3
2017-Mar-27 02:33N 48°55' W 123°16'7 7.1
2017-Mar-27 01:33N 49°00' W 123°08'6 6.4
2017-Mar-27 00:33N 48°55' W 123°14'6 6.2
2017-Mar-26 23:33N 48°51' W 123°21'4 3.9
2017-Mar-26 22:32N 48°51' W 123°27'0 0.1
2017-Mar-26 21:06N 48°51' W 123°27'611.0
2017-Mar-26 20:33N 48°48' W 123°19'4 3.8
2017-Mar-26 19:33N 48°52' W 123°21'8 8.0
2017-Mar-26 18:33N 48°58' W 123°13'4 4.2
2017-Mar-26 17:33N 49°00' W 123°08'10 9.6
2017-Mar-26 16:33N 48°53' W 123°17'3 2.8
2017-Mar-26 15:33N 48°51' W 123°20'3 3.3
2017-Mar-26 14:33N 48°49' W 123°24'3 0.3
2017-Mar-26 05:33N 48°51' W 123°21'3 3.0
2017-Mar-26 04:34N 48°53' W 123°18'10 9.6
2017-Mar-26 03:33N 49°00' W 123°08'0 0.0
2017-Mar-26 02:33N 49°00' W 123°08'0 0.0
2017-Mar-26 01:33N 49°00' W 123°08'1110.5
2017-Mar-26 00:33N 48°53' W 123°19'4 4.0
2017-Mar-25 23:33N 48°49' W 123°20'5 5.0
2017-Mar-25 22:33N 48°51' W 123°27'1 0.7
2017-Mar-25 20:33N 48°50' W 123°25'1312.9
2017-Mar-25 19:33N 48°59' W 123°10'0 0.4
2017-Mar-25 18:33N 48°59' W 123°10'10 7.5
2017-Mar-25 17:12N 48°51' W 123°20'2 2.9
2017-Mar-25 16:32N 48°53' W 123°19'1110.9
2017-Mar-25 15:34N 49°00' W 123°08'5 4.5
2017-Mar-25 14:33N 48°57' W 123°12'1111.1
2017-Mar-25 13:33N 48°51' W 123°27'0 0.0
2017-Mar-25 05:27N 48°51' W 123°27'6 6.7
2017-Mar-25 04:34N 48°48' W 123°20'5 4.7
2017-Mar-25 03:31N 48°53' W 123°19'1111.1
2017-Mar-25 02:33N 49°00' W 123°08'0 0.0
2017-Mar-25 01:32N 49°00' W 123°08'1110.8
2017-Mar-25 00:33N 48°53' W 123°19'2 1.9
2017-Mar-24 23:32N 48°51' W 123°20'3 3.4
2017-Mar-24 22:33N 48°49' W 123°24'3 1.3
2017-Mar-24 20:14N 48°51' W 123°27'6 8.9
2017-Mar-24 19:33N 48°48' W 123°19'4 3.6
2017-Mar-24 18:34N 48°52' W 123°19'9 8.6
2017-Mar-24 17:33N 48°59' W 123°11'3 2.7
2017-Mar-24 16:33N 49°00' W 123°08'10 9.5
2017-Mar-24 15:33N 48°53' W 123°17'3 2.8
2017-Mar-24 14:31N 48°51' W 123°20'3 3.5
2017-Mar-24 13:32N 48°49' W 123°24'2 0.8
2017-Mar-24 10:32N 48°51' W 123°27'0 0.0
2017-Mar-24 05:32N 48°51' W 123°27'6 6.2
2017-Mar-24 04:33N 48°48' W 123°19'5 4.6
2017-Mar-24 03:34N 48°53' W 123°18'9 8.7
2017-Mar-24 02:33N 48°59' W 123°10'2 1.8
2017-Mar-24 01:33N 49°00' W 123°08'1110.7
2017-Mar-24 00:33N 48°53' W 123°19'2 2.0
2017-Mar-23 23:33N 48°51' W 123°20'4 3.8
2017-Mar-23 22:29N 48°51' W 123°26'1 0.3
2017-Mar-23 20:22N 48°51' W 123°27'6 7.4
2017-Mar-23 19:33N 48°48' W 123°19'4 4.4
2017-Mar-23 18:34N 48°52' W 123°18'8 8.2
2017-Mar-23 17:33N 48°59' W 123°11'2 2.5
2017-Mar-23 16:33N 49°00' W 123°08'1010.0
2017-Mar-23 15:33N 48°53' W 123°18'2 2.4
2017-Mar-23 14:31N 48°51' W 123°20'3 3.5
2017-Mar-23 13:34N 48°49' W 123°24'1 0.1
2017-Mar-23 05:33N 48°49' W 123°24'3 3.1
2017-Mar-23 04:28N 48°51' W 123°20'5 5.8
2017-Mar-23 03:33N 48°55' W 123°16'7 7.3
2017-Mar-23 02:33N 49°00' W 123°08'0 0.0
2017-Mar-23 01:33N 49°00' W 123°08'1110.7
2017-Mar-23 00:33N 48°53' W 123°19'2 1.7
2017-Mar-22 23:27N 48°51' W 123°20'3 3.8
2017-Mar-22 22:33N 48°49' W 123°24'3 1.2
2017-Mar-22 20:27N 48°51' W 123°27'6 6.6
2017-Mar-22 19:34N 48°48' W 123°19'3 3.0
2017-Mar-22 18:33N 48°51' W 123°20'8 7.7
2017-Mar-22 17:33N 48°57' W 123°13'5 5.0
2017-Mar-22 16:33N 49°00' W 123°08'9 9.3
2017-Mar-22 15:33N 48°53' W 123°17'3 3.1
2017-Mar-22 14:31N 48°51' W 123°20'3 3.4
2017-Mar-22 13:33N 48°49' W 123°24'2 0.3
2017-Mar-22 05:20N 48°51' W 123°27'6 7.8
2017-Mar-22 04:33N 48°48' W 123°19'5 4.6
2017-Mar-22 03:33N 48°53' W 123°18'8 8.3
2017-Mar-22 02:33N 48°59' W 123°10'2 2.2
2017-Mar-22 01:33N 49°00' W 123°08'1110.7
2017-Mar-22 00:33N 48°53' W 123°19'4 3.6
2017-Mar-21 23:33N 48°49' W 123°20'5 3.3
2017-Mar-21 22:09N 48°51' W 123°27'0 0.0
2017-Mar-21 21:26N 48°51' W 123°27'0 0.0
2017-Mar-21 20:12N 48°51' W 123°27'6 9.4
2017-Mar-21 19:34N 48°48' W 123°19'4 3.8
2017-Mar-21 18:33N 48°52' W 123°20'9 8.8
2017-Mar-21 17:34N 48°58' W 123°11'3 3.1
2017-Mar-21 16:33N 49°00' W 123°08'10 9.9
2017-Mar-21 15:33N 48°53' W 123°18'3 2.6
2017-Mar-21 14:29N 48°51' W 123°20'3 3.6
2017-Mar-21 13:33N 48°49' W 123°24'2 1.0
2017-Mar-21 11:15N 48°51' W 123°27'0 0.0
2017-Mar-21 07:30N 48°51' W 123°27'0 0.0
2017-Mar-21 05:19N 48°51' W 123°27'6 8.0
2017-Mar-21 04:33N 48°48' W 123°19'4 4.3
2017-Mar-21 03:33N 48°52' W 123°18'9 8.5
2017-Mar-21 02:33N 48°59' W 123°10'2 2.1
2017-Mar-21 01:33N 49°00' W 123°08'1110.6
2017-Mar-21 00:33N 48°53' W 123°19'2 2.0
2017-Mar-20 23:33N 48°51' W 123°20'3 3.5
2017-Mar-20 22:33N 48°49' W 123°24'2 2.4
2017-Mar-20 21:33N 48°51' W 123°27'0 0.0
2017-Mar-20 20:32N 48°51' W 123°27'6 6.0
2017-Mar-20 19:33N 48°48' W 123°19'3 3.0
2017-Mar-20 18:33N 48°51' W 123°20'8 8.0
2017-Mar-20 17:33N 48°57' W 123°13'5 4.2
2017-Mar-20 16:27N 49°00' W 123°08'1010.8
2017-Mar-20 15:34N 48°53' W 123°17'3 2.9
2017-Mar-20 14:33N 48°51' W 123°20'3 3.3
2017-Mar-20 13:33N 48°49' W 123°24'3 3.1
2017-Mar-20 12:33N 48°51' W 123°27'0 0.0
2017-Mar-20 08:28N 48°51' W 123°27'0 0.0
2017-Mar-20 07:25N 48°51' W 123°27'0 0.0
2017-Mar-20 06:07N 48°51' W 123°27'5 9.0
2017-Mar-20 05:33N 48°52' W 123°19'1211.5
2017-Mar-20 04:33N 49°00' W 123°08'1111.1
2017-Mar-20 03:34N 48°52' W 123°18'0 0.2
2017-Mar-20 02:34N 48°52' W 123°18'1110.6
2017-Mar-20 01:32N 49°00' W 123°08'8 8.0
2017-Mar-20 00:34N 48°54' W 123°15'5 4.9
2017-Mar-19 23:33N 48°51' W 123°21'4 1.9
2017-Mar-19 21:33N 48°51' W 123°27'6 6.1
2017-Mar-19 20:34N 48°48' W 123°19'4 3.6
2017-Mar-19 19:33N 48°51' W 123°21'8 8.2
2017-Mar-19 18:33N 48°57' W 123°13'4 4.3
2017-Mar-19 17:33N 49°00' W 123°08'10 9.8
2017-Mar-19 16:33N 48°53' W 123°18'3 2.7
2017-Mar-19 15:33N 48°51' W 123°20'3 3.4
2017-Mar-19 14:33N 48°49' W 123°24'3 2.7
2017-Mar-19 13:32N 48°51' W 123°27'0 0.0
2017-Mar-19 12:10N 48°51' W 123°27'0 0.0
2017-Mar-19 10:31N 48°51' W 123°27'0 0.0
2017-Mar-19 07:07N 48°51' W 123°27'4 2.7
2017-Mar-19 05:33N 48°51' W 123°20'4 4.4
2017-Mar-19 04:33N 48°55' W 123°17'  

Dump ship's entire track history